Antlers, Oklahoma
Current Conditions -  °F | °C
As of 11:15 PM on Saturday 20 Dec 2014 (Local Time) from KHHW Reporting Station
Overcast Overcast  
Wind Chill: 47°   Ceiling: 3300
Heat Index: 47°   Visibility: 7mi
Dew Point: 43°   Wind: 3mph
Humidity: 86%   Direction: 160°SSE
Pressure: 30.19"   Gusts: NA
Location:  34.23°N, 95.62°W
Report Text: KHHW 210515Z AUTO 16003KT 7SM OVC033 09/06 A3019 RMK AO2 T00850063
Loading
Personal Weather Stations






























Interactive Weather Map New forecast layout! Learn more

10-Day Weather Forecast

Advertisements
Track Severe Weather on mobile